Time;durP1;ratioP1;P1;durP2;ratioP2;P2;SDS_P1;SDS_P2;PMS_P1;PMS_P2;Temp;Humidity;BMP_temperature;BMP_pressure;BME280_temperature;BME280_humidity;BME280_pressure;Samples;Min_cycle;Max_cycle;Signal;HPM_P1;HPM_P2
2022/03/30 00:02:13;;;;;;;3.60;1.38;;;4.20;80.90;;;;;;5052755;28;20025;-74
2022/03/30 00:04:39;;;;;;;7.88;1.90;;;4.20;81.00;;;;;;5058550;28;20032;-74
2022/03/30 00:07:05;;;;;;;7.15;1.58;;;4.20;81.10;;;;;;5057964;28;20024;-74
2022/03/30 00:09:32;;;;;;;7.38;1.55;;;4.20;81.30;;;;;;5062323;28;20037;-74
2022/03/30 00:11:58;;;;;;;5.05;2.00;;;4.10;81.30;;;;;;5053556;28;20743;-75
2022/03/30 00:14:25;;;;;;;5.55;1.80;;;4.10;80.40;;;;;;5058267;28;20055;-72
2022/03/30 00:16:51;;;;;;;4.65;1.80;;;4.00;79.40;;;;;;5041408;28;20512;-74
2022/03/30 00:19:18;;;;;;;4.72;2.15;;;3.90;79.50;;;;;;5062056;28;20162;-74
2022/03/30 00:21:44;;;;;;;9.73;1.52;;;3.90;79.60;;;;;;5059545;28;20054;-74
2022/03/30 00:24:10;;;;;;;6.70;1.83;;;3.80;80.00;;;;;;5050142;28;20528;-73
2022/03/30 00:26:36;;;;;;;3.70;1.38;;;3.70;80.60;;;;;;5054403;28;20064;-74
2022/03/30 00:29:04;;;;;;;4.85;2.00;;;3.70;81.60;;;;;;5055013;28;20795;-73
2022/03/30 00:31:31;;;;;;;7.63;2.30;;;3.60;82.40;;;;;;5044027;28;20036;-74
2022/03/30 00:33:57;;;;;;;6.18;1.45;;;3.60;82.90;;;;;;5031334;28;20143;-74
2022/03/30 00:36:23;;;;;;;8.55;1.98;;;3.60;82.90;;;;;;5037635;28;20115;-74
2022/03/30 00:38:48;;;;;;;7.65;1.58;;;3.60;83.30;;;;;;5057429;28;20037;-74
2022/03/30 00:41:14;;;;;;;5.15;1.67;;;3.60;83.20;;;;;;5060720;28;20094;-74
2022/03/30 00:43:40;;;;;;;9.48;2.38;;;3.60;83.80;;;;;;5057933;28;20061;-74
2022/03/30 00:46:06;;;;;;;10.50;2.15;;;3.60;84.20;;;;;;5055861;28;20075;-73
2022/03/30 00:48:31;;;;;;;6.03;1.73;;;3.70;84.70;;;;;;5057852;28;20590;-73
2022/03/30 00:50:57;;;;;;;4.45;1.50;;;3.70;85.10;;;;;;5059205;28;20094;-74
2022/03/30 00:53:23;;;;;;;6.63;2.10;;;3.70;85.60;;;;;;5058370;28;20058;-73
2022/03/30 00:55:52;;;;;;;6.13;1.58;;;3.70;86.20;;;;;;5054318;28;20028;-73
2022/03/30 00:58:19;;;;;;;5.35;1.95;;;3.70;86.50;;;;;;5017156;28;1107825;-73
2022/03/30 01:00:45;;;;;;;6.38;1.67;;;3.70;86.50;;;;;;5040975;28;20033;-74
2022/03/30 01:03:10;;;;;;;5.75;1.77;;;3.60;85.90;;;;;;5061489;28;20036;-74
2022/03/30 01:05:36;;;;;;;3.60;1.77;;;3.70;85.60;;;;;;5055053;28;20033;-73
2022/03/30 01:08:02;;;;;;;5.55;1.85;;;3.60;85.80;;;;;;5054966;28;20111;-74
2022/03/30 01:10:28;;;;;;;3.83;1.65;;;3.50;85.90;;;;;;5059254;28;20647;-73
2022/03/30 01:12:55;;;;;;;7.38;1.95;;;3.50;86.00;;;;;;5061388;28;20036;-74
2022/03/30 01:15:21;;;;;;;7.40;1.83;;;3.40;86.30;;;;;;5058981;28;20032;-74
2022/03/30 01:17:47;;;;;;;8.65;1.80;;;3.40;86.40;;;;;;5056434;28;20070;-74
2022/03/30 01:20:17;;;;;;;4.90;1.83;;;3.40;86.60;;;;;;5052026;28;20110;-74
2022/03/30 01:22:42;;;;;;;5.30;1.30;;;3.40;86.80;;;;;;5060223;28;20925;-74
2022/03/30 01:25:09;;;;;;;6.78;1.50;;;3.30;86.50;;;;;;5060952;28;20033;-74
2022/03/30 01:27:36;;;;;;;7.00;2.45;;;3.30;85.70;;;;;;5055343;28;20416;-73
2022/03/30 01:33:03;;;;;;;5.72;2.10;;;3.20;85.70;;;;;;5056520;28;20060;-74
2022/03/30 01:35:29;;;;;;;7.20;2.42;;;3.20;86.30;;;;;;5061739;28;20120;-74
2022/03/30 01:37:55;;;;;;;7.78;1.60;;;3.10;86.50;;;;;;5057822;28;20044;-74
2022/03/30 01:40:21;;;;;;;10.60;2.13;;;3.10;86.40;;;;;;5051247;28;20029;-73
2022/03/30 01:42:47;;;;;;;4.38;1.80;;;3.00;86.40;;;;;;5058572;28;20032;-73
2022/03/30 01:45:15;;;;;;;3.78;1.45;;;3.00;86.20;;;;;;5060560;28;20032;-73
2022/03/30 01:47:48;;;;;;;5.97;1.38;;;2.90;86.00;;;;;;5057909;28;20419;-74
2022/03/30 01:50:13;;;;;;;6.63;1.88;;;2.90;86.60;;;;;;5052196;28;20041;-73
2022/03/30 01:52:39;;;;;;;5.32;1.60;;;2.80;87.30;;;;;;5055392;28;20097;-74
2022/03/30 01:55:05;;;;;;;4.57;1.50;;;2.80;88.30;;;;;;5040004;28;20194;-74
2022/03/30 01:57:31;;;;;;;3.05;1.38;;;2.90;89.20;;;;;;5060679;28;20036;-73
2022/03/30 01:59:57;;;;;;;4.55;1.58;;;2.90;89.80;;;;;;5052965;28;20081;-73
2022/03/30 02:02:23;;;;;;;5.35;1.50;;;2.80;90.10;;;;;;5053530;28;21230;-73
2022/03/30 02:04:49;;;;;;;6.82;2.00;;;2.80;90.20;;;;;;5057257;28;20127;-74
2022/03/30 02:07:15;;;;;;;5.13;1.48;;;2.80;90.10;;;;;;5059048;28;20155;-72
2022/03/30 02:09:40;;;;;;;5.90;1.73;;;2.80;90.00;;;;;;5057837;28;20072;-73
2022/03/30 02:12:07;;;;;;;5.90;1.77;;;2.80;89.60;;;;;;5055406;28;20178;-74
2022/03/30 02:14:33;;;;;;;6.85;1.85;;;2.70;88.60;;;;;;5056903;28;20043;-73
2022/03/30 02:16:59;;;;;;;3.33;1.67;;;2.60;87.80;;;;;;5056958;28;20025;-73
2022/03/30 02:19:24;;;;;;;9.05;2.17;;;2.50;87.20;;;;;;5060042;28;20085;-73
2022/03/30 02:21:50;;;;;;;5.45;1.67;;;2.50;86.70;;;;;;5054593;28;20130;-74
2022/03/30 02:24:16;;;;;;;3.97;1.40;;;2.50;86.30;;;;;;5057575;28;20029;-73
2022/03/30 02:26:41;;;;;;;9.88;2.17;;;2.40;86.70;;;;;;5059784;28;20120;-74
2022/03/30 02:29:07;;;;;;;4.57;1.75;;;2.40;87.40;;;;;;5060933;28;20032;-74
2022/03/30 02:31:34;;;;;;;8.00;1.70;;;2.40;88.10;;;;;;5058385;28;20040;-73
2022/03/30 02:34:00;;;;;;;8.48;2.08;;;2.30;88.60;;;;;;5052466;28;20067;-73
2022/03/30 02:36:25;;;;;;;5.25;2.53;;;2.30;89.60;;;;;;5056277;28;20141;-73
2022/03/30 02:38:51;;;;;;;5.82;1.45;;;2.40;90.30;;;;;;5057245;28;20107;-73
2022/03/30 02:41:17;;;;;;;7.15;1.67;;;2.40;90.70;;;;;;5056857;28;20082;-74
2022/03/30 02:43:43;;;;;;;4.95;1.65;;;2.50;91.00;;;;;;5056971;28;20025;-73
2022/03/30 02:46:09;;;;;;;10.82;2.35;;;2.40;91.20;;;;;;5052843;28;20029;-74
2022/03/30 02:48:35;;;;;;;3.67;1.67;;;2.50;91.60;;;;;;5057116;28;20028;-73
2022/03/30 02:51:04;;;;;;;5.05;1.50;;;2.50;91.40;;;;;;5058500;28;20058;-74
2022/03/30 02:53:30;;;;;;;3.85;1.50;;;2.50;91.50;;;;;;5057880;28;20181;-74
2022/03/30 02:55:56;;;;;;;7.97;2.03;;;2.60;91.10;;;;;;5034727;28;20458;-74
2022/03/30 02:58:23;;;;;;;7.22;1.50;;;2.60;90.80;;;;;;5055965;28;20044;-74
2022/03/30 03:00:49;;;;;;;6.00;1.50;;;2.50;90.40;;;;;;5057816;28;20032;-72
2022/03/30 03:03:15;;;;;;;9.88;1.75;;;2.50;89.30;;;;;;5056486;28;20082;-74
2022/03/30 03:05:42;;;;;;;6.40;1.70;;;2.50;88.60;;;;;;5050413;28;20575;-73
2022/03/30 03:08:10;;;;;;;3.38;1.63;;;2.40;88.80;;;;;;5056076;28;20054;-74
2022/03/30 03:10:38;;;;;;;5.22;1.70;;;2.40;89.60;;;;;;5058048;28;20075;-74
2022/03/30 03:13:04;;;;;;;6.05;1.48;;;2.40;90.20;;;;;;5059638;28;20062;-73
2022/03/30 03:15:35;;;;;;;5.13;1.88;;;2.30;90.40;;;;;;5051149;28;20037;-73
2022/03/30 03:18:02;;;;;;;5.88;1.75;;;2.30;90.50;;;;;;5052647;28;20620;-73
2022/03/30 03:20:28;;;;;;;5.63;1.52;;;2.20;90.50;;;;;;5058820;28;20153;-74
2022/03/30 03:22:55;;;;;;;8.95;2.03;;;2.20;90.70;;;;;;5059143;28;20915;-74
2022/03/30 03:25:21;;;;;;;4.65;1.60;;;2.10;90.80;;;;;;5056510;28;20040;-73
2022/03/30 03:27:48;;;;;;;6.68;1.83;;;2.10;90.90;;;;;;5054251;28;20028;-73
2022/03/30 03:30:14;;;;;;;3.67;1.30;;;2.10;90.80;;;;;;5054577;28;20040;-73
2022/03/30 03:32:41;;;;;;;4.05;1.50;;;2.10;90.80;;;;;;5058307;28;20033;-74
2022/03/30 03:35:09;;;;;;;10.43;1.40;;;2.00;90.80;;;;;;5057884;28;20025;-73
2022/03/30 03:37:38;;;;;;;11.50;2.15;;;2.10;91.10;;;;;;5052955;28;20825;-73
2022/03/30 03:40:06;;;;;;;4.82;2.38;;;2.10;91.40;;;;;;5050402;28;20050;-73
2022/03/30 03:42:32;;;;;;;4.72;2.10;;;2.10;91.70;;;;;;5056673;28;20028;-73
2022/03/30 03:44:58;;;;;;;7.32;2.30;;;2.20;91.80;;;;;;5043079;28;20614;-74
2022/03/30 03:47:24;;;;;;;6.97;2.03;;;2.20;92.20;;;;;;5055169;28;20042;-74
2022/03/30 03:49:50;;;;;;;5.57;1.88;;;2.20;92.10;;;;;;5053467;28;20073;-73
2022/03/30 03:52:16;;;;;;;6.45;1.80;;;2.20;92.30;;;;;;5032918;28;20512;-73
2022/03/30 03:54:42;;;;;;;7.57;2.05;;;2.20;92.20;;;;;;5055342;28;20064;-74
2022/03/30 03:57:08;;;;;;;12.13;2.60;;;2.20;91.60;;;;;;5058632;28;20443;-73
2022/03/30 03:59:35;;;;;;;7.63;2.30;;;2.10;90.60;;;;;;5060146;28;20151;-74
2022/03/30 04:02:02;;;;;;;4.47;2.00;;;2.10;90.20;;;;;;5056807;28;20086;-74
2022/03/30 04:04:28;;;;;;;6.38;2.03;;;1.90;89.60;;;;;;5052298;28;20048;-73
2022/03/30 04:06:54;;;;;;;9.07;1.90;;;1.90;89.60;;;;;;5057430;28;20089;-73
2022/03/30 04:09:19;;;;;;;7.07;2.13;;;1.80;89.90;;;;;;5048740;28;20897;-73
2022/03/30 04:11:45;;;;;;;3.63;1.92;;;1.70;90.00;;;;;;5053455;28;20033;-73
2022/03/30 04:14:11;;;;;;;2.92;1.80;;;1.70;90.10;;;;;;5058913;28;20854;-73
2022/03/30 04:16:37;;;;;;;6.13;2.05;;;1.60;90.20;;;;;;5055452;28;20028;-73
2022/03/30 04:19:02;;;;;;;9.40;2.20;;;1.60;90.30;;;;;;5058489;28;20492;-74
2022/03/30 04:21:28;;;;;;;7.90;2.30;;;1.60;90.40;;;;;;5055922;28;20151;-73
2022/03/30 04:23:54;;;;;;;6.15;2.08;;;1.60;90.50;;;;;;5063037;28;20503;-73
2022/03/30 04:26:19;;;;;;;5.05;2.22;;;1.70;90.80;;;;;;5059913;28;20091;-72
2022/03/30 04:28:45;;;;;;;8.52;2.20;;;1.70;90.90;;;;;;5059175;28;20083;-72
2022/03/30 04:31:12;;;;;;;8.82;2.13;;;1.80;91.10;;;;;;5058764;28;20032;-74
2022/03/30 04:33:38;;;;;;;9.98;2.40;;;1.90;91.30;;;;;;5061041;28;20028;-73
2022/03/30 04:36:05;;;;;;;6.00;2.20;;;2.00;91.50;;;;;;5063030;28;20699;-74
2022/03/30 04:38:32;;;;;;;5.22;2.08;;;2.00;91.60;;;;;;5055378;28;20071;-73
2022/03/30 04:40:58;;;;;;;7.10;2.42;;;2.10;91.80;;;;;;5063299;28;20127;-73
2022/03/30 04:43:23;;;;;;;6.25;2.15;;;2.20;91.90;;;;;;5060623;28;20116;-73
2022/03/30 04:45:49;;;;;;;11.25;2.45;;;2.30;91.80;;;;;;5058421;28;20037;-73
2022/03/30 04:48:15;;;;;;;15.98;3.90;;;2.30;91.70;;;;;;5041096;28;20082;-74
2022/03/30 04:50:41;;;;;;;10.45;2.50;;;2.40;91.80;;;;;;5055295;28;20037;-72
2022/03/30 04:53:06;;;;;;;6.68;2.83;;;2.50;92.00;;;;;;5057846;28;20115;-72
2022/03/30 04:55:32;;;;;;;15.40;2.80;;;2.60;92.20;;;;;;5058846;28;20555;-72
2022/03/30 04:57:58;;;;;;;13.55;3.58;;;2.70;92.20;;;;;;5039879;28;20054;-74
2022/03/30 05:00:24;;;;;;;8.05;2.72;;;2.80;91.60;;;;;;5058435;28;20032;-73
2022/03/30 05:02:50;;;;;;;13.65;3.35;;;2.80;90.70;;;;;;5054633;28;20199;-74
2022/03/30 05:05:16;;;;;;;12.02;2.13;;;2.70;89.80;;;;;;5052265;28;20548;-73
2022/03/30 05:07:41;;;;;;;9.35;2.70;;;2.70;87.70;;;;;;5059167;28;20055;-73
2022/03/30 05:10:13;;;;;;;13.00;2.28;;;2.60;87.20;;;;;;5058947;28;20028;-73
2022/03/30 05:12:39;;;;;;;6.20;2.17;;;2.60;87.00;;;;;;5057765;28;20033;-73
2022/03/30 05:15:06;;;;;;;9.15;2.60;;;2.50;87.00;;;;;;5057907;28;20042;-74
2022/03/30 05:17:32;;;;;;;6.78;2.88;;;2.50;87.20;;;;;;5049542;28;20045;-74
2022/03/30 05:19:59;;;;;;;14.27;3.28;;;2.50;87.10;;;;;;5056406;28;20507;-73
2022/03/30 05:22:25;;;;;;;11.98;2.50;;;2.50;86.90;;;;;;5054029;28;20067;-73
2022/03/30 05:24:50;;;;;;;7.85;2.88;;;2.60;86.40;;;;;;5060615;28;20043;-72
2022/03/30 05:27:16;;;;;;;11.52;2.20;;;2.70;86.10;;;;;;5037015;28;20032;-73
2022/03/30 05:29:42;;;;;;;11.32;2.35;;;2.80;86.60;;;;;;5054669;28;20025;-74
2022/03/30 05:32:08;;;;;;;10.30;3.33;;;2.90;87.90;;;;;;5057186;28;20025;-74
2022/03/30 05:34:33;;;;;;;4.97;2.40;;;3.10;88.80;;;;;;5056079;28;20029;-73
2022/03/30 05:36:59;;;;;;;6.85;2.45;;;3.30;87.90;;;;;;5033550;28;20066;-73
2022/03/30 05:39:25;;;;;;;7.82;2.78;;;3.40;87.80;;;;;;5055675;28;20024;-72
2022/03/30 05:41:52;;;;;;;7.90;2.58;;;3.50;87.80;;;;;;5054724;28;20032;-73
2022/03/30 05:44:18;;;;;;;12.32;3.20;;;3.70;87.80;;;;;;5058364;28;20024;-71
2022/03/30 05:46:44;;;;;;;5.35;2.63;;;3.90;87.40;;;;;;5046295;28;20037;-73
2022/03/30 05:49:10;;;;;;;7.05;2.80;;;4.00;86.90;;;;;;5058198;28;20423;-72
2022/03/30 05:51:36;;;;;;;7.95;2.33;;;4.10;86.80;;;;;;5059797;28;20076;-73
2022/03/30 05:54:02;;;;;;;9.70;3.35;;;4.30;86.30;;;;;;5053607;28;20079;-73
2022/03/30 05:59:15;;;;;;;10.40;3.85;;;4.70;84.90;;;;;;5052216;28;20056;-72
2022/03/30 06:01:41;;;;;;;14.75;4.88;;;4.80;83.80;;;;;;5057775;28;20034;-74
2022/03/30 06:04:07;;;;;;;17.75;3.72;;;5.10;82.20;;;;;;5055720;28;20056;-73
2022/03/30 06:06:34;;;;;;;8.50;3.67;;;5.30;81.40;;;;;;5049700;28;20063;-73
2022/03/30 06:09:01;;;;;;;11.18;4.13;;;5.50;80.60;;;;;;5047077;28;20685;-74
2022/03/30 06:11:27;;;;;;;15.93;4.13;;;5.60;79.70;;;;;;5056772;28;20127;-73
2022/03/30 06:13:53;;;;;;;12.00;3.25;;;5.70;79.00;;;;;;5050305;28;20107;-73
2022/03/30 06:16:18;;;;;;;19.90;3.65;;;5.90;78.70;;;;;;5056260;28;20808;-71
2022/03/30 06:18:44;;;;;;;13.55;3.65;;;6.10;77.10;;;;;;5051903;28;20029;-70
2022/03/30 06:21:10;;;;;;;8.85;2.70;;;6.40;74.90;;;;;;5051594;28;20025;-70
2022/03/30 06:23:36;;;;;;;17.27;3.45;;;6.60;73.60;;;;;;5049504;28;20080;-70
2022/03/30 06:26:03;;;;;;;10.15;2.65;;;6.90;72.00;;;;;;5053632;28;20021;-73
2022/03/30 06:28:29;;;;;;;6.50;2.53;;;7.20;70.70;;;;;;5058532;28;20492;-71
2022/03/30 06:30:56;;;;;;;13.48;3.75;;;7.40;69.60;;;;;;5056600;28;20953;-71
2022/03/30 06:33:22;;;;;;;13.48;4.28;;;7.70;68.40;;;;;;5058133;28;20075;-71
2022/03/30 06:35:48;;;;;;;11.45;4.15;;;7.90;67.80;;;;;;5057167;28;20028;-71
2022/03/30 06:38:14;;;;;;;15.32;5.00;;;8.00;66.80;;;;;;5057649;28;20044;-71
2022/03/30 06:40:40;;;;;;;12.85;5.40;;;8.10;66.60;;;;;;5032977;28;20662;-71
2022/03/30 06:43:06;;;;;;;12.60;5.18;;;8.20;66.50;;;;;;5050938;28;20059;-71
2022/03/30 06:45:32;;;;;;;13.30;4.97;;;8.30;66.70;;;;;;5048489;28;20029;-71
2022/03/30 06:47:57;;;;;;;11.70;4.53;;;8.30;66.20;;;;;;5053663;28;20036;-74
2022/03/30 06:50:24;;;;;;;8.48;3.97;;;8.30;66.70;;;;;;5053458;28;20040;-72
2022/03/30 06:52:50;;;;;;;14.23;5.15;;;8.40;66.80;;;;;;5055908;28;20037;-73
2022/03/30 06:55:16;;;;;;;12.73;4.53;;;8.50;66.60;;;;;;5051483;28;20722;-71
2022/03/30 06:57:42;;;;;;;25.35;9.13;;;8.60;66.70;;;;;;5052538;28;20032;-73
2022/03/30 07:00:12;;;;;;;28.40;12.63;;;8.90;66.60;;;;;;5032971;28;20116;-72
2022/03/30 07:02:38;;;;;;;15.00;4.80;;;9.30;65.50;;;;;;5049311;28;20040;-71
2022/03/30 07:05:04;;;;;;;9.52;3.15;;;10.80;62.30;;;;;;5051257;28;20025;-71
2022/03/30 07:10:15;;;;;;;14.27;3.17;;;14.50;50.20;;;;;;5051514;28;20028;-71
2022/03/30 07:12:45;;;;;;;8.32;2.83;;;14.50;48.50;;;;;;5049360;28;20086;-72
2022/03/30 07:15:11;;;;;;;13.88;3.20;;;13.90;49.60;;;;;;5059209;28;20029;-71
2022/03/30 07:17:44;;;;;;;8.65;2.47;;;13.30;51.00;;;;;;5060341;28;20036;-71
2022/03/30 07:20:13;;;;;;;7.47;2.45;;;12.70;52.20;;;;;;5056274;28;20432;-72
2022/03/30 07:22:39;;;;;;;10.38;2.40;;;12.50;52.90;;;;;;5054396;28;20054;-70
2022/03/30 07:25:05;;;;;;;6.47;2.90;;;12.30;53.20;;;;;;5055706;28;20040;-71
2022/03/30 07:27:31;;;;;;;10.73;2.95;;;12.40;53.10;;;;;;5056697;28;20036;-71
2022/03/30 07:29:57;;;;;;;11.13;2.65;;;12.80;52.80;;;;;;5055312;28;20066;-70
2022/03/30 07:32:24;;;;;;;9.52;2.83;;;13.50;50.60;;;;;;5057942;28;20028;-71
2022/03/30 07:34:52;;;;;;;10.27;2.60;;;13.90;49.10;;;;;;5055815;28;20029;-72
2022/03/30 07:37:18;;;;;;;8.73;2.75;;;14.30;48.60;;;;;;5058767;28;20036;-71
2022/03/30 07:39:43;;;;;;;10.68;2.67;;;15.60;46.10;;;;;;5043662;28;20058;-71
2022/03/30 07:42:09;;;;;;;10.27;2.83;;;16.60;43.90;;;;;;5057696;28;20123;-72
2022/03/30 07:44:35;;;;;;;11.07;2.60;;;18.10;40.30;;;;;;5055526;28;20587;-69
2022/03/30 07:47:02;;;;;;;9.02;2.80;;;18.80;37.90;;;;;;5059213;28;20036;-70
2022/03/30 07:49:28;;;;;;;8.88;1.83;;;18.50;37.60;;;;;;5055951;28;20512;-71
2022/03/30 07:51:54;;;;;;;5.60;2.10;;;17.60;38.40;;;;;;5062020;28;20123;-70
2022/03/30 07:54:20;;;;;;;10.38;2.42;;;16.80;40.40;;;;;;5059832;28;20757;-70
2022/03/30 07:56:45;;;;;;;5.75;2.08;;;16.60;40.90;;;;;;5058980;28;20275;-71
2022/03/30 07:59:11;;;;;;;11.73;1.95;;;18.80;37.80;;;;;;5054454;28;20033;-70
2022/03/30 08:01:37;;;;;;;9.00;2.70;;;21.10;34.00;;;;;;5039827;28;20036;-71
2022/03/30 08:04:03;;;;;;;9.15;2.33;;;21.10;32.70;;;;;;5056422;28;20076;-70
2022/03/30 08:06:29;;;;;;;8.52;2.22;;;20.40;33.00;;;;;;5058083;28;20638;-70
2022/03/30 08:08:54;;;;;;;7.53;2.70;;;20.50;33.50;;;;;;5055140;28;20032;-71
2022/03/30 08:11:21;;;;;;;8.45;2.15;;;21.70;32.00;;;;;;5061480;28;20044;-70
2022/03/30 08:13:46;;;;;;;9.65;2.17;;;22.60;30.80;;;;;;5061324;28;20036;-70
2022/03/30 08:16:13;;;;;;;5.60;1.65;;;22.90;29.80;;;;;;5062457;28;20078;-71
2022/03/30 08:18:38;;;;;;;6.18;2.00;;;23.10;28.80;;;;;;5063605;28;20043;-70
2022/03/30 08:23:48;;;;;;;6.00;1.63;;;22.10;29.60;;;;;;5055541;28;20020;-71
2022/03/30 08:26:14;;;;;;;8.48;1.65;;;22.00;29.60;;;;;;5055372;28;20467;-71
2022/03/30 08:28:40;;;;;;;4.97;1.60;;;21.30;30.10;;;;;;5044232;28;20033;-71
2022/03/30 08:31:06;;;;;;;8.50;2.00;;;20.30;31.80;;;;;;5059638;28;20085;-71
2022/03/30 08:33:31;;;;;;;7.40;1.90;;;19.30;32.90;;;;;;5055397;28;20040;-71
2022/03/30 08:35:57;;;;;;;5.93;1.50;;;18.50;33.50;;;;;;5060342;28;20500;-70
2022/03/30 08:38:23;;;;;;;5.50;1.63;;;17.70;34.30;;;;;;5054413;28;20032;-70
2022/03/30 08:40:51;;;;;;;5.22;1.55;;;17.40;34.60;;;;;;5050795;28;20104;-69
2022/03/30 08:43:18;;;;;;;3.42;1.20;;;17.20;34.50;;;;;;5060058;28;20134;-70
2022/03/30 08:45:43;;;;;;;7.40;1.65;;;16.90;35.60;;;;;;5055165;28;20032;-70
2022/03/30 08:48:10;;;;;;;6.93;1.98;;;16.60;35.80;;;;;;5060341;28;20032;-70
2022/03/30 08:50:36;;;;;;;3.92;1.55;;;16.50;37.00;;;;;;5058151;28;20393;-69
2022/03/30 08:53:05;;;;;;;6.68;2.03;;;16.50;36.70;;;;;;5057686;28;20036;-70
2022/03/30 08:55:31;;;;;;;4.55;1.75;;;16.80;36.00;;;;;;5057078;28;20598;-70
2022/03/30 08:57:57;;;;;;;4.63;1.77;;;17.10;36.10;;;;;;5054841;28;20052;-70
2022/03/30 09:00:25;;;;;;;8.80;2.05;;;17.20;36.10;;;;;;5055162;28;20568;-69
2022/03/30 09:03:00;;;;;;;5.68;1.80;;;17.30;36.10;;;;;;5041545;28;20028;-69
2022/03/30 09:05:31;;;;;;;7.70;1.85;;;17.40;35.70;;;;;;5058070;28;20063;-69
2022/03/30 09:08:14;;;;;;;6.57;1.80;;;17.50;35.00;;;;;;5057583;28;20036;-71
2022/03/30 09:10:43;;;;;;;5.07;1.70;;;17.60;34.50;;;;;;5058372;28;20075;-70
2022/03/30 09:13:10;;;;;;;4.43;1.30;;;17.80;33.50;;;;;;5058775;28;20086;-68
2022/03/30 09:15:38;;;;;;;6.97;1.60;;;17.90;34.00;;;;;;5055710;28;20032;-69
2022/03/30 09:18:06;;;;;;;5.60;1.45;;;18.00;33.60;;;;;;5059687;28;20458;-70
2022/03/30 09:20:32;;;;;;;4.82;1.48;;;18.10;32.80;;;;;;5042600;28;20448;-70
2022/03/30 09:23:00;;;;;;;5.60;1.67;;;18.00;33.20;;;;;;5050979;28;20028;-68
2022/03/30 09:25:27;;;;;;;4.07;1.38;;;18.00;32.60;;;;;;5061372;28;20044;-69
2022/03/30 09:27:54;;;;;;;5.65;1.77;;;17.80;31.80;;;;;;5061583;28;20032;-70
2022/03/30 09:30:21;;;;;;;5.68;1.30;;;17.50;32.30;;;;;;5045430;28;20055;-71
2022/03/30 09:32:52;;;;;;;4.60;1.67;;;17.30;32.70;;;;;;5053386;28;20021;-68
2022/03/30 09:35:28;;;;;;;7.53;1.60;;;17.20;32.70;;;;;;5053827;28;20040;-69
2022/03/30 09:38:15;;;;;;;2.33;1.00;;;16.70;33.30;;;;;;5038139;28;20036;-72
2022/03/30 09:40:57;;;;;;;4.82;1.27;;;16.50;34.40;;;;;;5056357;28;20042;-71
2022/03/30 09:43:28;;;;;;;5.80;1.23;;;16.30;34.80;;;;;;5057744;28;20028;-71
2022/03/30 09:46:13;;;;;;;4.30;1.27;;;16.00;35.00;;;;;;5059797;28;20032;-71
2022/03/30 09:48:53;;;;;;;6.72;1.30;;;16.00;35.80;;;;;;5057281;28;20028;-68
2022/03/30 09:51:20;;;;;;;3.55;1.23;;;16.40;35.30;;;;;;5056500;28;20039;-70
2022/03/30 09:53:47;;;;;;;5.68;1.58;;;16.60;35.00;;;;;;5040849;28;20115;-70
2022/03/30 09:56:19;;;;;;;4.38;2.20;;;16.50;34.90;;;;;;5049997;28;20020;-71
2022/03/30 09:58:46;;;;;;;7.55;1.98;;;16.40;35.60;;;;;;5056547;28;20519;-70
2022/03/30 10:01:17;;;;;;;7.53;1.50;;;16.60;35.00;;;;;;5056329;28;20447;-71
2022/03/30 10:03:59;;;;;;;5.03;1.55;;;16.80;33.70;;;;;;5052810;28;20033;-71
2022/03/30 10:06:36;;;;;;;5.60;1.10;;;16.60;34.90;;;;;;5046042;28;20033;-70
2022/03/30 10:09:02;;;;;;;6.30;1.40;;;16.50;35.40;;;;;;5049103;28;20028;-70
2022/03/30 10:11:29;;;;;;;8.80;1.48;;;16.50;35.60;;;;;;5050747;28;20038;-72
2022/03/30 10:13:58;;;;;;;9.63;1.88;;;16.40;35.50;;;;;;5051363;28;20021;-71
2022/03/30 10:16:24;;;;;;;6.18;1.30;;;16.20;35.50;;;;;;5056596;28;20083;-71
2022/03/30 10:18:51;;;;;;;5.55;1.88;;;15.90;36.10;;;;;;5053568;28;20033;-68
2022/03/30 10:21:20;;;;;;;5.63;1.35;;;15.90;37.00;;;;;;5051975;28;20062;-72
2022/03/30 10:24:30;;;;;;;5.88;1.40;;;16.00;36.50;;;;;;5040569;28;20043;-71
2022/03/30 10:26:59;;;;;;;9.20;1.85;;;15.90;35.50;;;;;;5053750;28;20515;-71
2022/03/30 10:29:28;;;;;;;8.07;1.20;;;15.80;36.10;;;;;;5055498;28;20040;-70
2022/03/30 10:32:21;;;;;;;4.32;1.38;;;15.80;35.90;;;;;;5051917;28;20036;-69
2022/03/30 10:34:53;;;;;;;7.68;1.50;;;15.80;36.40;;;;;;5057286;28;20575;-69
2022/03/30 10:37:28;;;;;;;5.13;1.33;;;15.90;36.00;;;;;;5052521;28;20033;-71
2022/03/30 10:40:07;;;;;;;6.55;1.20;;;15.90;35.50;;;;;;5054298;28;20032;-69
2022/03/30 10:42:52;;;;;;;6.82;1.63;;;15.70;35.20;;;;;;5060300;28;20055;-70
2022/03/30 10:45:46;;;;;;;7.82;1.63;;;15.70;34.70;;;;;;5058489;28;20156;-70
2022/03/30 10:48:30;;;;;;;7.50;1.63;;;15.60;35.50;;;;;;5039695;28;20040;-70
2022/03/30 10:51:00;;;;;;;6.10;1.88;;;15.40;35.30;;;;;;5054462;28;20040;-69
2022/03/30 10:53:31;;;;;;;3.88;1.13;;;15.60;35.90;;;;;;5054063;28;21045;-69
2022/03/30 10:56:24;;;;;;;2.78;1.10;;;17.30;33.40;;;;;;5055184;28;20040;-69
2022/03/30 10:58:55;;;;;;;6.85;1.45;;;19.70;28.90;;;;;;5046238;28;20155;-70
2022/03/30 11:01:28;;;;;;;5.50;1.02;;;19.30;29.50;;;;;;5055661;28;20040;-70
2022/03/30 11:04:18;;;;;;;4.15;1.50;;;18.90;30.00;;;;;;5042329;28;20090;-71
2022/03/30 11:07:15;;;;;;;4.85;1.55;;;18.90;30.40;;;;;;5058972;28;20032;-71
2022/03/30 11:09:42;;;;;;;4.50;1.27;;;18.60;30.00;;;;;;5005642;28;20521;-71
2022/03/30 11:12:12;;;;;;;6.10;1.40;;;18.50;30.80;;;;;;5059602;28;20036;-71
2022/03/30 11:14:43;;;;;;;5.32;1.50;;;19.10;30.20;;;;;;5054549;28;20051;-70
2022/03/30 11:17:13;;;;;;;7.15;1.50;;;19.30;30.40;;;;;;5058605;28;20039;-70
2022/03/30 11:19:47;;;;;;;8.93;2.05;;;18.30;30.80;;;;;;5056888;28;20037;-70
2022/03/30 11:22:29;;;;;;;8.68;1.38;;;18.10;31.20;;;;;;5062675;28;20766;-70
2022/03/30 11:25:20;;;;;;;5.00;1.25;;;18.40;30.10;;;;;;5057388;28;20563;-70
2022/03/30 11:28:08;;;;;;;5.35;1.02;;;18.90;30.50;;;;;;5060902;28;20032;-70
2022/03/30 11:30:38;;;;;;;10.05;2.08;;;19.50;29.70;;;;;;5046443;28;20047;-70
2022/03/30 11:33:19;;;;;;;5.60;1.70;;;19.80;30.00;;;;;;5062370;28;20090;-69
2022/03/30 11:35:48;;;;;;;7.40;1.88;;;19.90;29.20;;;;;;5056697;28;20036;-70
2022/03/30 11:38:40;;;;;;;6.20;1.63;;;19.50;29.10;;;;;;5062383;28;20098;-71
2022/03/30 11:41:08;;;;;;;5.32;2.00;;;18.90;29.70;;;;;;5063254;28;20040;-71
2022/03/30 11:45:12;;;;;;;7.50;2.15;;;18.30;30.30;;;;;;5061448;28;20041;-71
2022/03/30 11:46:30;;;;;;;7.35;1.65;;;18.00;30.80;;;;;;5063737;28;20036;-70
2022/03/30 11:49:01;;;;;;;13.20;2.45;;;17.80;31.70;;;;;;5058077;28;20098;-71
2022/03/30 11:51:27;;;;;;;11.32;3.38;;;17.50;32.20;;;;;;5054804;28;20037;-70
2022/03/30 11:54:16;;;;;;;6.80;2.03;;;17.30;33.00;;;;;;5064555;28;20036;-71
2022/03/30 11:56:42;;;;;;;6.93;1.55;;;17.20;32.80;;;;;;5061775;28;20503;-70
2022/03/30 11:59:08;;;;;;;8.05;1.85;;;17.40;32.40;;;;;;5058609;28;20029;-71
2022/03/30 12:01:35;;;;;;;5.32;1.70;;;17.50;32.10;;;;;;5056716;28;20676;-71
2022/03/30 12:04:01;;;;;;;8.55;1.95;;;17.20;32.60;;;;;;5061851;28;20029;-71
2022/03/30 12:06:27;;;;;;;7.22;1.75;;;16.90;33.10;;;;;;5063895;28;20524;-70
2022/03/30 12:08:53;;;;;;;6.00;1.92;;;16.10;34.80;;;;;;5055450;28;20029;-70
2022/03/30 12:11:20;;;;;;;7.53;2.03;;;15.70;35.30;;;;;;5064381;28;20533;-70
2022/03/30 12:14:06;;;;;;;4.72;1.65;;;15.90;35.30;;;;;;5058364;28;20128;-70
2022/03/30 12:16:34;;;;;;;8.43;2.30;;;16.30;34.40;;;;;;5063395;28;20545;-71
2022/03/30 12:19:00;;;;;;;11.18;1.90;;;16.00;34.10;;;;;;5046118;28;20474;-70
2022/03/30 12:21:28;;;;;;;9.90;1.92;;;15.60;35.00;;;;;;5062560;28;20120;-69
2022/03/30 12:23:54;;;;;;;8.68;1.80;;;15.40;34.80;;;;;;5060447;28;20503;-69
2022/03/30 12:26:20;;;;;;;8.45;1.83;;;15.30;35.50;;;;;;5042751;28;20028;-69
2022/03/30 12:28:45;;;;;;;6.47;1.98;;;15.40;35.60;;;;;;5061740;28;20028;-69
2022/03/30 12:31:13;;;;;;;7.07;1.88;;;15.60;35.20;;;;;;5061268;28;20028;-70
2022/03/30 12:33:44;;;;;;;10.07;2.58;;;15.30;35.30;;;;;;5040623;28;20458;-69
2022/03/30 12:36:17;;;;;;;6.07;2.08;;;15.30;36.60;;;;;;5064050;28;20051;-70
2022/03/30 12:38:43;;;;;;;8.90;3.88;;;15.40;36.60;;;;;;5052138;28;20409;-69
2022/03/30 12:41:11;;;;;;;11.43;2.20;;;15.50;36.40;;;;;;5047959;28;20025;-69
2022/03/30 12:43:37;;;;;;;3.22;1.50;;;15.70;34.80;;;;;;5044980;28;20044;-70
2022/03/30 12:46:03;;;;;;;8.43;1.92;;;15.70;34.70;;;;;;5061722;28;20498;-69
2022/03/30 12:48:31;;;;;;;5.03;2.08;;;15.90;35.50;;;;;;5064140;28;20052;-70
2022/03/30 12:50:59;;;;;;;10.05;2.08;;;15.90;34.50;;;;;;5062155;28;20495;-69
2022/03/30 12:53:36;;;;;;;6.00;2.20;;;15.70;34.60;;;;;;5065671;28;20032;-70
2022/03/30 12:56:14;;;;;;;8.77;2.00;;;15.80;34.20;;;;;;5057818;28;20040;-70
2022/03/30 12:59:01;;;;;;;11.15;1.90;;;15.80;34.00;;;;;;5059846;28;20598;-70
2022/03/30 13:01:43;;;;;;;7.05;2.22;;;15.60;35.00;;;;;;5061704;28;20053;-70
2022/03/30 13:04:31;;;;;;;5.75;1.52;;;15.50;35.60;;;;;;5060399;28;20046;-70
2022/03/30 13:07:07;;;;;;;5.93;1.85;;;15.40;35.10;;;;;;5062277;28;20024;-70
2022/03/30 13:09:34;;;;;;;5.60;1.90;;;15.20;35.00;;;;;;5056878;28;20036;-68